Othello — LXOD — position and weather

sailwx.info

Track history (hours):
 
Tides and Currents Weather Stations Pressure Air Temp Water Temp Dewpoint Dewpoint Depression Visibility Wind Speed Wind Dir Waves Ship Positions

Othello

Last reported at 2016-Sep-28 21:33 UTC. Time now 2016-Sep-30 05:00 UTC.
Position N 51°19' E 001°52'.

Length 104 m; draft 7.1 m.

Type: Tanker. MMSI: 253279000.

Date/timePositionNaut miles runAvg speedWind from/ knotsBaromVisibWave heightAir tempDewpointWater temp
2016-Sep-28 21:33N 51°19' E 001°52'18 9.1
2016-Sep-28 19:33N 51°21' E 002°21'3712.2
2016-Sep-28 16:33N 51°25' E 003°20'1312.7
2016-Sep-28 15:34N 51°26' E 003°40'27 9.0
2016-Sep-28 12:33N 51°17' E 004°20'2 0.4
2016-Sep-28 08:31N 51°16' E 004°22'0 0.0
2016-Sep-28 03:31N 51°16' E 004°22'0 0.0
2016-Sep-28 02:31N 51°16' E 004°22'0 0.0
2016-Sep-28 01:31N 51°16' E 004°22'0 0.0
2016-Sep-27 23:31N 51°16' E 004°22'0 0.0
2016-Sep-27 19:31N 51°16' E 004°22'0 0.0
2016-Sep-27 14:31N 51°16' E 004°22'0 0.0
2016-Sep-27 13:31N 51°16' E 004°22'0 0.0
2016-Sep-27 10:31N 51°16' E 004°22'0 0.0
2016-Sep-27 00:31N 51°16' E 004°22'0 0.0
2016-Sep-26 20:31N 51°16' E 004°22'0 0.0
2016-Sep-26 19:31N 51°16' E 004°22'0 0.0
2016-Sep-26 15:31N 51°16' E 004°22'0 0.0
2016-Sep-26 13:31N 51°16' E 004°22'0 0.0
2016-Sep-26 11:31N 51°16' E 004°22'0 0.0
2016-Sep-26 08:28N 51°16' E 004°22'0 0.0
2016-Sep-26 02:31N 51°16' E 004°22'0 0.0
2016-Sep-26 01:31N 51°16' E 004°22'0 0.0
2016-Sep-26 00:31N 51°16' E 004°22'0 0.0
2016-Sep-25 21:31N 51°16' E 004°22'2 0.5
2016-Sep-25 17:29N 51°17' E 004°20'0 0.0
2016-Sep-25 16:20N 51°17' E 004°20'0 0.0
2016-Sep-25 15:32N 51°17' E 004°20'0 0.0
2016-Sep-25 14:32N 51°17' E 004°20'0 0.0
2016-Sep-25 11:29N 51°17' E 004°20'0 0.0
2016-Sep-25 10:32N 51°17' E 004°20'0 0.0
2016-Sep-25 09:17N 51°17' E 004°20'0 0.0
2016-Sep-25 07:29N 51°17' E 004°20'0 0.0
2016-Sep-25 04:29N 51°17' E 004°20'0 0.0
2016-Sep-25 00:33N 51°17' E 004°20'0 0.0
2016-Sep-24 22:33N 51°17' E 004°20'0 0.0
2016-Sep-24 21:33N 51°17' E 004°20'4 2.0
2016-Sep-24 19:34N 51°21' E 004°17'4 3.8
2016-Sep-24 18:33N 51°23' E 004°13'1010.0
2016-Sep-24 17:33N 51°23' E 003°57'1313.3
2016-Sep-24 16:33N 51°26' E 003°36'2613.0
2016-Sep-24 14:33N 51°22' E 002°55'2512.4
2016-Sep-24 12:33N 51°19' E 002°15'19 9.7
2016-Sep-24 10:33N 51°36' E 002°02'7 7.4
2016-Sep-24 09:33N 51°42' E 002°10'3 0.5
2016-Sep-24 03:33N 51°44' E 002°07'3 3.3
2016-Sep-24 02:34N 51°47' E 002°10'3 3.0
2016-Sep-24 01:31N 51°50' E 002°12'18 3.1
2016-Sep-23 19:33N 52°08' E 002°14'54 3.6
2016-Sep-23 04:31N 52°03' E 003°41'1010.4
2016-Sep-23 03:33N 52°02' E 003°57'1313.2
2016-Sep-23 02:33N 51°55' E 004°15'4 2.9
2016-Sep-23 01:22N 51°53' E 004°21'0 0.0
2016-Sep-23 00:28N 51°53' E 004°21'0 0.0
2016-Sep-22 23:31N 51°53' E 004°21'0 0.0
2016-Sep-22 12:25N 51°53' E 004°21'3 0.3
2016-Sep-22 04:28N 51°53' E 004°17'0 0.0
2016-Sep-22 03:31N 51°53' E 004°17'0 0.0
2016-Sep-22 00:31N 51°53' E 004°17'0 0.0
2016-Sep-21 23:25N 51°53' E 004°17'0 0.0
2016-Sep-21 22:25N 51°53' E 004°17'0 0.0
2016-Sep-21 19:31N 51°53' E 004°17'0 0.0
2016-Sep-21 16:19N 51°53' E 004°17'0 0.0
2016-Sep-21 09:19N 51°53' E 004°17'0 0.0
2016-Sep-21 08:19N 51°53' E 004°17'0 0.0
2016-Sep-21 03:16N 51°53' E 004°17'0 0.0
2016-Sep-21 02:28N 51°53' E 004°17'106 8.9
2016-Sep-20 14:33N 53°34' E 005°07'1414.0
2016-Sep-20 13:33N 53°39' E 005°30'3511.8
2016-Sep-20 10:33N 53°50' E 006°26'2211.0
2016-Sep-20 08:33N 53°56' E 007°02'1212.5
2016-Sep-20 07:33N 53°59' E 007°23'1313.5
2016-Sep-20 06:33N 54°02' E 007°45'5112.8
2016-Sep-20 02:33N 53°53' E 009°11'3210.6
2016-Sep-19 23:33N 53°33' E 009°52'5 1.3
2016-Sep-19 19:33N 53°32' E 010°00'0 0.0
2016-Sep-19 18:30N 53°32' E 010°00'0 0.0
2016-Sep-19 16:27N 53°32' E 010°00'0 0.0
2016-Sep-19 14:33N 53°32' E 010°00'0 0.5
2016-Sep-19 13:33N 53°32' E 009°60'8 8.3
2016-Sep-19 12:33N 53°34' E 009°46'7 7.1
2016-Sep-19 11:33N 53°36' E 009°35'12 6.1
2016-Sep-19 09:34N 53°46' E 009°24'11 5.4
2016-Sep-19 07:33N 53°53' E 009°09'2 1.5
2016-Sep-19 06:33N 53°54' E 009°10'39 6.4
2016-Sep-19 00:31N 54°21' E 009°58'  
Track history (hours):
 
Tides and Currents Weather Stations Pressure Air Temp Water Temp Dewpoint Dewpoint Depression Visibility Wind Speed Wind Dir Waves Ship Positions

Othello

Last reported at 2016-Sep-28 21:33 UTC. Time now 2016-Sep-30 05:00 UTC.
Position N 51°19' E 001°52'.

Length 104 m; draft 7.1 m.

Type: Tanker. MMSI: 253279000.

Date/timePositionNaut miles runAvg speedWind from/ knotsBaromVisibWave heightAir tempDewpointWater temp
2016-Sep-28 21:33N 51°19' E 001°52'18 9.1
2016-Sep-28 19:33N 51°21' E 002°21'3712.2
2016-Sep-28 16:33N 51°25' E 003°20'1312.7
2016-Sep-28 15:34N 51°26' E 003°40'27 9.0
2016-Sep-28 12:33N 51°17' E 004°20'2 0.4
2016-Sep-28 08:31N 51°16' E 004°22'0 0.0
2016-Sep-28 03:31N 51°16' E 004°22'0 0.0
2016-Sep-28 02:31N 51°16' E 004°22'0 0.0
2016-Sep-28 01:31N 51°16' E 004°22'0 0.0
2016-Sep-27 23:31N 51°16' E 004°22'0 0.0
2016-Sep-27 19:31N 51°16' E 004°22'0 0.0
2016-Sep-27 14:31N 51°16' E 004°22'0 0.0
2016-Sep-27 13:31N 51°16' E 004°22'0 0.0
2016-Sep-27 10:31N 51°16' E 004°22'0 0.0
2016-Sep-27 00:31N 51°16' E 004°22'0 0.0
2016-Sep-26 20:31N 51°16' E 004°22'0 0.0
2016-Sep-26 19:31N 51°16' E 004°22'0 0.0
2016-Sep-26 15:31N 51°16' E 004°22'0 0.0
2016-Sep-26 13:31N 51°16' E 004°22'0 0.0
2016-Sep-26 11:31N 51°16' E 004°22'0 0.0
2016-Sep-26 08:28N 51°16' E 004°22'0 0.0
2016-Sep-26 02:31N 51°16' E 004°22'0 0.0
2016-Sep-26 01:31N 51°16' E 004°22'0 0.0
2016-Sep-26 00:31N 51°16' E 004°22'0 0.0
2016-Sep-25 21:31N 51°16' E 004°22'2 0.5
2016-Sep-25 17:29N 51°17' E 004°20'0 0.0
2016-Sep-25 16:20N 51°17' E 004°20'0 0.0
2016-Sep-25 15:32N 51°17' E 004°20'0 0.0
2016-Sep-25 14:32N 51°17' E 004°20'0 0.0
2016-Sep-25 11:29N 51°17' E 004°20'0 0.0
2016-Sep-25 10:32N 51°17' E 004°20'0 0.0
2016-Sep-25 09:17N 51°17' E 004°20'0 0.0
2016-Sep-25 07:29N 51°17' E 004°20'0 0.0
2016-Sep-25 04:29N 51°17' E 004°20'0 0.0
2016-Sep-25 00:33N 51°17' E 004°20'0 0.0
2016-Sep-24 22:33N 51°17' E 004°20'0 0.0
2016-Sep-24 21:33N 51°17' E 004°20'4 2.0
2016-Sep-24 19:34N 51°21' E 004°17'4 3.8
2016-Sep-24 18:33N 51°23' E 004°13'1010.0
2016-Sep-24 17:33N 51°23' E 003°57'1313.3
2016-Sep-24 16:33N 51°26' E 003°36'2613.0
2016-Sep-24 14:33N 51°22' E 002°55'2512.4
2016-Sep-24 12:33N 51°19' E 002°15'19 9.7
2016-Sep-24 10:33N 51°36' E 002°02'7 7.4
2016-Sep-24 09:33N 51°42' E 002°10'3 0.5
2016-Sep-24 03:33N 51°44' E 002°07'3 3.3
2016-Sep-24 02:34N 51°47' E 002°10'3 3.0
2016-Sep-24 01:31N 51°50' E 002°12'18 3.1
2016-Sep-23 19:33N 52°08' E 002°14'54 3.6
2016-Sep-23 04:31N 52°03' E 003°41'1010.4
2016-Sep-23 03:33N 52°02' E 003°57'1313.2
2016-Sep-23 02:33N 51°55' E 004°15'4 2.9
2016-Sep-23 01:22N 51°53' E 004°21'0 0.0
2016-Sep-23 00:28N 51°53' E 004°21'0 0.0
2016-Sep-22 23:31N 51°53' E 004°21'0 0.0
2016-Sep-22 12:25N 51°53' E 004°21'3 0.3
2016-Sep-22 04:28N 51°53' E 004°17'0 0.0
2016-Sep-22 03:31N 51°53' E 004°17'0 0.0
2016-Sep-22 00:31N 51°53' E 004°17'0 0.0
2016-Sep-21 23:25N 51°53' E 004°17'0 0.0
2016-Sep-21 22:25N 51°53' E 004°17'0 0.0
2016-Sep-21 19:31N 51°53' E 004°17'0 0.0
2016-Sep-21 16:19N 51°53' E 004°17'0 0.0
2016-Sep-21 09:19N 51°53' E 004°17'0 0.0
2016-Sep-21 08:19N 51°53' E 004°17'0 0.0
2016-Sep-21 03:16N 51°53' E 004°17'0 0.0
2016-Sep-21 02:28N 51°53' E 004°17'106 8.9
2016-Sep-20 14:33N 53°34' E 005°07'1414.0
2016-Sep-20 13:33N 53°39' E 005°30'3511.8
2016-Sep-20 10:33N 53°50' E 006°26'2211.0
2016-Sep-20 08:33N 53°56' E 007°02'1212.5
2016-Sep-20 07:33N 53°59' E 007°23'1313.5
2016-Sep-20 06:33N 54°02' E 007°45'5112.8
2016-Sep-20 02:33N 53°53' E 009°11'3210.6
2016-Sep-19 23:33N 53°33' E 009°52'5 1.3
2016-Sep-19 19:33N 53°32' E 010°00'0 0.0
2016-Sep-19 18:30N 53°32' E 010°00'0 0.0
2016-Sep-19 16:27N 53°32' E 010°00'0 0.0
2016-Sep-19 14:33N 53°32' E 010°00'0 0.5
2016-Sep-19 13:33N 53°32' E 009°60'8 8.3
2016-Sep-19 12:33N 53°34' E 009°46'7 7.1
2016-Sep-19 11:33N 53°36' E 009°35'12 6.1
2016-Sep-19 09:34N 53°46' E 009°24'11 5.4
2016-Sep-19 07:33N 53°53' E 009°09'2 1.5
2016-Sep-19 06:33N 53°54' E 009°10'39 6.4
2016-Sep-19 00:31N 54°21' E 009°58'  

Dump ship's entire track history